ラパス の空港の天気 - METARとTAF

エル・アルト国際空港 ( SLLP / LPB ) - ボリビア ラパス
飛行場実況気象(Metar)
観測時間04/25 10:00 BOT (04/25 14:00 UTC)
風向・風速南西 2m/s
視程10km以上
天気現象
全天の4割程度の雲 雲底高度 400m
全天の8割程度の雲 雲底高度 6100m
気温8℃
湿度66%
気圧1042hPa
METARSLLP 251400Z 23004KT 9999 SCT013 BKN200 08/02 Q1042
過去の天気等 Google飛行場航空写真 Wunderground天気予報

過去48時間のMETAR

飛行場予報(TAF)
発表時間: 4/25 07:00 BOT (4/25 11:00 UTC)
予報対象時間: 25日8時 BOT ~ 26日8時 BOT
風向・風速東 4m/s
視程10km以上
全天の4割程度の雲 雲底高度 400m
25日10時 BOT ~ 25日14時 BOT に徐々に
風向・風速南東 6m/s
全天の4割程度の雲 雲底高度 520m
25日15時 BOT ~ 25日18時 BOT に一時的に
少しの積乱雲 雲底高度 610m
25日19時 BOT ~ 25日23時 BOT に徐々に
風向・風速北東 4m/s
少しの雲 雲底高度 460m
26日1時 BOT ~ 26日5時 BOT に一時的に
TAF SLLP 251100Z 2512/2612 08007KT 9999 SCT013 TX17/2520Z TN03/2610Z
BECMG 2514/2518 13012KT SCT017
TEMPO 2519/2522 FEW020CB
BECMG 2523/ 2603 04007KT FEW015
TEMPO 2605/2609 3000E VCFG FEW002 SCT013